Time;durP1;ratioP1;P1;durP2;ratioP2;P2;SDS_P1;SDS_P2;PMS_P1;PMS_P2;Temp;Humidity;BMP_temperature;BMP_pressure;BME280_temperature;BME280_humidity;BME280_pressure;Samples;Min_cycle;Max_cycle;Signal;HPM_P1;HPM_P2
2023/04/01 00:01:10;;;;;;;5.07;2.00;;;;;;;;;;5073483;28;20178;-67
2023/04/01 00:03:36;;;;;;;7.60;2.33;;;;;;;;;;5073287;28;20211;-67
2023/04/01 00:06:02;;;;;;;6.47;2.33;;;;;;;;;;5073499;28;20589;-68
2023/04/01 00:08:29;;;;;;;3.63;1.87;;;;;;;;;;5056035;28;20208;-68
2023/04/01 00:10:56;;;;;;;6.03;2.30;;;;;;;;;;5073298;28;20180;-68
2023/04/01 00:13:22;;;;;;;4.63;2.10;;;;;;;;;;5073323;28;20277;-67
2023/04/01 00:15:49;;;;;;;5.17;2.23;;;;;;;;;;5055766;28;20231;-67
2023/04/01 00:18:15;;;;;;;8.00;2.20;;;;;;;;;;5073711;28;20653;-68
2023/04/01 00:20:49;;;;;;;5.60;2.33;;;;;;;;;;5075079;28;20277;-68
2023/04/01 00:23:15;;;;;;;6.50;1.87;;;;;;;;;;5060255;28;20208;-68
2023/04/01 00:25:42;;;;;;;4.63;1.93;;;;;;;;;;5061421;28;20265;-68
2023/04/01 00:28:07;;;;;;;6.67;1.80;;;;;;;;;;5081651;28;20178;-68
2023/04/01 00:30:33;;;;;;;4.10;1.53;;;;;;;;;;5078727;28;20177;-67
2023/04/01 00:33:00;;;;;;;4.67;1.87;;;;;;;;;;5076992;28;20281;-67
2023/04/01 00:35:26;;;;;;;4.50;1.90;;;;;;;;;;5077099;28;20224;-68
2023/04/01 00:37:52;;;;;;;6.50;1.90;;;;;;;;;;5077100;28;20177;-68
2023/04/01 00:40:23;;;;;;;5.53;1.50;;;;;;;;;;5077484;28;20539;-68
2023/04/01 00:42:50;;;;;;;2.07;1.33;;;;;;;;;;5076857;28;20648;-67
2023/04/01 00:45:27;;;;;;;3.17;1.77;;;;;;;;;;5077061;28;20170;-67
2023/04/01 00:47:53;;;;;;;2.73;1.70;;;;;;;;;;5076599;28;20247;-68
2023/04/01 00:50:19;;;;;;;5.77;2.30;;;;;;;;;;5076793;28;20237;-67
2023/04/01 00:52:46;;;;;;;7.43;1.70;;;;;;;;;;5076747;28;20213;-67
2023/04/01 00:55:13;;;;;;;3.97;1.97;;;;;;;;;;5076917;28;20170;-70
2023/04/01 00:57:40;;;;;;;5.23;1.97;;;;;;;;;;5076870;28;20207;-68
2023/04/01 01:00:09;;;;;;;4.73;1.80;;;;;;;;;;5077058;28;20174;-68
2023/04/01 01:02:35;;;;;;;5.60;1.93;;;;;;;;;;5076654;28;20253;-69
2023/04/01 01:05:01;;;;;;;4.90;1.80;;;;;;;;;;5076856;28;20603;-68
2023/04/01 01:07:42;;;;;;;3.23;2.00;;;;;;;;;;5076646;28;20209;-68
2023/04/01 01:10:12;;;;;;;3.07;1.77;;;;;;;;;;5076225;28;20678;-68
2023/04/01 01:12:45;;;;;;;3.00;1.70;;;;;;;;;;5076170;28;20197;-69
2023/04/01 01:15:22;;;;;;;5.00;1.73;;;;;;;;;;5076121;28;20178;-68
2023/04/01 01:17:47;;;;;;;4.03;1.70;;;;;;;;;;5058035;28;20185;-68
2023/04/01 01:20:32;;;;;;;6.57;1.87;;;;;;;;;;5075920;28;20644;-67
2023/04/01 01:23:07;;;;;;;1.87;1.50;;;;;;;;;;5076085;28;20675;-66
2023/04/01 01:25:44;;;;;;;4.23;1.70;;;;;;;;;;5076418;28;20154;-68
2023/04/01 01:28:29;;;;;;;4.40;1.83;;;;;;;;;;5057987;28;20532;-69
2023/04/01 01:30:55;;;;;;;2.97;1.90;;;;;;;;;;5057859;28;20306;-68
2023/04/01 01:33:38;;;;;;;4.63;1.63;;;;;;;;;;5075830;28;20198;-68
2023/04/01 01:36:06;;;;;;;7.47;1.90;;;;;;;;;;5076197;28;20170;-67
2023/04/01 01:38:33;;;;;;;3.47;1.60;;;;;;;;;;5074648;28;20178;-68
2023/04/01 01:40:59;;;;;;;5.53;1.90;;;;;;;;;;5076243;28;20263;-68
2023/04/01 01:43:27;;;;;;;3.43;1.50;;;;;;;;;;5075607;28;20209;-67
2023/04/01 01:45:58;;;;;;;2.93;1.77;;;;;;;;;;5076106;28;20173;-68
2023/04/01 01:48:25;;;;;;;1.73;1.20;;;;;;;;;;5057477;28;20177;-68
2023/04/01 01:50:51;;;;;;;3.17;1.70;;;;;;;;;;5075981;28;20198;-68
2023/04/01 01:53:17;;;;;;;3.00;1.40;;;;;;;;;;5075966;28;20704;-67
2023/04/01 01:55:45;;;;;;;2.30;1.40;;;;;;;;;;5075558;28;20194;-68
2023/04/01 01:58:14;;;;;;;2.23;1.60;;;;;;;;;;5075654;28;20174;-67
2023/04/01 02:00:42;;;;;;;2.73;1.47;;;;;;;;;;5075362;28;20589;-67
2023/04/01 02:03:08;;;;;;;2.43;1.40;;;;;;;;;;5075197;28;20209;-66
2023/04/01 02:05:35;;;;;;;4.17;1.80;;;;;;;;;;5075113;28;20173;-67
2023/04/01 02:08:14;;;;;;;2.77;1.60;;;;;;;;;;5075083;28;20692;-67
2023/04/01 02:10:41;;;;;;;3.00;1.27;;;;;;;;;;5075143;28;20631;-67
2023/04/01 02:13:17;;;;;;;1.97;1.00;;;;;;;;;;5074866;28;20220;-68
2023/04/01 02:15:46;;;;;;;6.70;1.47;;;;;;;;;;5075631;28;20520;-67
2023/04/01 02:18:14;;;;;;;2.73;1.50;;;;;;;;;;5074888;28;20187;-67
2023/04/01 02:20:40;;;;;;;2.70;1.50;;;;;;;;;;5074507;28;20197;-67
2023/04/01 02:23:07;;;;;;;2.33;1.50;;;;;;;;;;5075426;28;20597;-68
2023/04/01 02:25:35;;;;;;;2.20;1.27;;;;;;;;;;5074607;28;20174;-68
2023/04/01 02:28:02;;;;;;;2.97;1.50;;;;;;;;;;5074320;28;20188;-68
2023/04/01 02:30:29;;;;;;;2.67;1.50;;;;;;;;;;5074843;28;20181;-68
2023/04/01 02:32:56;;;;;;;5.27;1.63;;;;;;;;;;5074232;28;20283;-67
2023/04/01 02:35:22;;;;;;;3.93;1.60;;;;;;;;;;5074343;28;20666;-67
2023/04/01 02:37:50;;;;;;;2.97;1.70;;;;;;;;;;5074870;28;20178;-68
2023/04/01 02:40:16;;;;;;;2.67;1.60;;;;;;;;;;5074338;28;20196;-68
2023/04/01 02:42:42;;;;;;;6.23;1.80;;;;;;;;;;5056106;28;20739;-67
2023/04/01 02:45:08;;;;;;;4.00;1.47;;;;;;;;;;5074178;28;20192;-68
2023/04/01 02:47:35;;;;;;;3.37;1.60;;;;;;;;;;5056425;28;20181;-68
2023/04/01 02:50:01;;;;;;;2.50;1.57;;;;;;;;;;5074612;28;20569;-68
2023/04/01 02:52:27;;;;;;;2.07;1.40;;;;;;;;;;5056009;28;20694;-68
2023/04/01 02:54:53;;;;;;;1.93;1.10;;;;;;;;;;5073956;28;20193;-68
2023/04/01 02:57:19;;;;;;;2.23;1.50;;;;;;;;;;5055922;28;20178;-68
2023/04/01 02:59:45;;;;;;;1.60;1.43;;;;;;;;;;5074026;28;20205;-68
2023/04/01 03:02:11;;;;;;;3.93;1.80;;;;;;;;;;5055911;28;20177;-67
2023/04/01 03:04:37;;;;;;;3.67;1.77;;;;;;;;;;5073854;28;20248;-68
2023/04/01 03:07:03;;;;;;;3.17;1.80;;;;;;;;;;5073599;28;20182;-68
2023/04/01 03:09:30;;;;;;;3.83;2.10;;;;;;;;;;5073976;28;20188;-68
2023/04/01 03:11:56;;;;;;;3.80;2.10;;;;;;;;;;5073550;28;20286;-68
2023/04/01 03:14:22;;;;;;;2.63;2.00;;;;;;;;;;5055609;28;20272;-67
2023/04/01 03:16:48;;;;;;;5.23;2.50;;;;;;;;;;5055566;28;20197;-67
2023/04/01 03:19:14;;;;;;;3.10;2.40;;;;;;;;;;5073554;28;20547;-68
2023/04/01 03:21:40;;;;;;;4.57;2.40;;;;;;;;;;5073941;28;20260;-68
2023/04/01 03:24:07;;;;;;;5.70;2.17;;;;;;;;;;5074078;28;20229;-68
2023/04/01 03:26:33;;;;;;;6.17;2.40;;;;;;;;;;5073445;28;20181;-68
2023/04/01 03:28:59;;;;;;;3.80;2.10;;;;;;;;;;5073627;28;20182;-68
2023/04/01 03:31:25;;;;;;;5.00;2.20;;;;;;;;;;5073424;28;20201;-68
2023/04/01 03:33:51;;;;;;;2.20;2.00;;;;;;;;;;5073283;28;20593;-68
2023/04/01 03:36:18;;;;;;;5.10;2.27;;;;;;;;;;5055456;28;20184;-68
2023/04/01 03:38:44;;;;;;;5.17;2.10;;;;;;;;;;5073348;28;20662;-68
2023/04/01 03:41:14;;;;;;;4.43;2.30;;;;;;;;;;5073065;28;20704;-69
2023/04/01 03:43:40;;;;;;;2.90;2.00;;;;;;;;;;5077491;22;20225;-68
2023/04/01 03:46:06;;;;;;;2.93;1.77;;;;;;;;;;5072409;28;20581;-70
2023/04/01 03:48:32;;;;;;;4.27;2.27;;;;;;;;;;5055194;28;20181;-70
2023/04/01 03:50:58;;;;;;;4.53;2.40;;;;;;;;;;5055195;28;20272;-70
2023/04/01 03:53:24;;;;;;;3.63;2.63;;;;;;;;;;5073493;28;20170;-70
2023/04/01 03:55:53;;;;;;;2.60;2.30;;;;;;;;;;5073257;28;20185;-70
2023/04/01 03:58:19;;;;;;;5.87;2.70;;;;;;;;;;5055098;28;20256;-70
2023/04/01 04:00:45;;;;;;;5.60;2.80;;;;;;;;;;5076341;28;20189;-71
2023/04/01 04:03:11;;;;;;;5.27;2.53;;;;;;;;;;5079639;28;20177;-70
2023/04/01 04:05:37;;;;;;;4.33;2.53;;;;;;;;;;5079781;28;20705;-70
2023/04/01 04:08:03;;;;;;;4.10;2.50;;;;;;;;;;5061588;28;20597;-70
2023/04/01 04:10:29;;;;;;;3.83;2.90;;;;;;;;;;5061853;28;20169;-70
2023/04/01 04:12:56;;;;;;;3.40;2.67;;;;;;;;;;5079845;28;20189;-70
2023/04/01 04:15:22;;;;;;;4.23;2.60;;;;;;;;;;5079618;28;20193;-70
2023/04/01 04:17:48;;;;;;;3.33;1.90;;;;;;;;;;5079719;28;20174;-70
2023/04/01 04:20:15;;;;;;;3.57;2.40;;;;;;;;;;5080475;28;20177;-70
2023/04/01 04:22:41;;;;;;;3.30;2.30;;;;;;;;;;5062280;28;20189;-70
2023/04/01 04:25:07;;;;;;;3.67;2.70;;;;;;;;;;5062011;28;20209;-70
2023/04/01 04:27:33;;;;;;;2.70;2.50;;;;;;;;;;5080441;28;20193;-70
2023/04/01 04:29:59;;;;;;;3.67;2.93;;;;;;;;;;5062590;28;20269;-71
2023/04/01 04:32:25;;;;;;;5.00;3.00;;;;;;;;;;5061892;28;20254;-70
2023/04/01 04:34:51;;;;;;;3.17;2.63;;;;;;;;;;5061482;28;20198;-70
2023/04/01 04:37:17;;;;;;;5.33;2.63;;;;;;;;;;5061494;28;20173;-71
2023/04/01 04:39:43;;;;;;;5.40;2.57;;;;;;;;;;5079490;28;20644;-70
2023/04/01 04:42:09;;;;;;;3.07;2.53;;;;;;;;;;5061489;28;20185;-70
2023/04/01 04:44:35;;;;;;;4.23;3.10;;;;;;;;;;5061332;28;20587;-71
2023/04/01 04:47:01;;;;;;;3.50;2.90;;;;;;;;;;5061503;28;20324;-70
2023/04/01 04:49:27;;;;;;;3.10;2.60;;;;;;;;;;5061400;28;20177;-70
2023/04/01 04:51:53;;;;;;;3.90;3.20;;;;;;;;;;5061262;28;20206;-70
2023/04/01 04:54:19;;;;;;;4.73;3.07;;;;;;;;;;5061320;28;20269;-70
2023/04/01 04:56:45;;;;;;;3.63;3.23;;;;;;;;;;5079677;28;20226;-70
2023/04/01 04:59:12;;;;;;;5.00;3.00;;;;;;;;;;5061424;28;20667;-68
2023/04/01 05:01:38;;;;;;;4.83;3.57;;;;;;;;;;5079273;28;20178;-68
2023/04/01 05:04:05;;;;;;;4.07;3.67;;;;;;;;;;5061310;28;20201;-71
2023/04/01 05:06:31;;;;;;;3.80;3.50;;;;;;;;;;5061121;28;20190;-68
2023/04/01 05:08:57;;;;;;;4.83;3.50;;;;;;;;;;5079399;28;20208;-71
2023/04/01 05:11:25;;;;;;;3.57;3.10;;;;;;;;;;5078529;28;20197;-69
2023/04/01 05:13:51;;;;;;;3.40;3.10;;;;;;;;;;5058055;28;20265;-70
2023/04/01 05:16:19;;;;;;;4.60;3.10;;;;;;;;;;5076315;28;20181;-70
2023/04/01 05:18:45;;;;;;;3.50;3.20;;;;;;;;;;5075847;28;20260;-69
2023/04/01 05:21:12;;;;;;;4.53;3.40;;;;;;;;;;5076204;28;20212;-69
2023/04/01 05:23:38;;;;;;;3.80;3.40;;;;;;;;;;5058642;28;20182;-69
2023/04/01 05:26:05;;;;;;;5.57;3.77;;;;;;;;;;5076027;28;20177;-70
2023/04/01 05:28:31;;;;;;;5.23;3.90;;;;;;;;;;5075662;28;20682;-69
2023/04/01 05:31:00;;;;;;;4.50;4.07;;;;;;;;;;5075615;28;20202;-69
2023/04/01 05:33:26;;;;;;;6.00;4.80;;;;;;;;;;5057714;28;20177;-69
2023/04/01 05:35:52;;;;;;;6.27;4.90;;;;;;;;;;5058101;28;20194;-69
2023/04/01 05:38:19;;;;;;;5.80;5.30;;;;;;;;;;5075894;28;20177;-69
2023/04/01 05:40:45;;;;;;;6.37;5.57;;;;;;;;;;5075533;28;20178;-70
2023/04/01 05:43:11;;;;;;;6.70;6.07;;;;;;;;;;5075465;28;20178;-69
2023/04/01 05:45:37;;;;;;;7.90;6.00;;;;;;;;;;5057347;28;20220;-69
2023/04/01 05:48:03;;;;;;;7.60;6.10;;;;;;;;;;5057340;28;20667;-69
2023/04/01 05:50:29;;;;;;;6.27;5.60;;;;;;;;;;5075513;28;20290;-69
2023/04/01 05:52:55;;;;;;;8.67;6.50;;;;;;;;;;5057243;28;20221;-69
2023/04/01 05:55:21;;;;;;;7.17;6.23;;;;;;;;;;5075287;28;20190;-69
2023/04/01 05:57:49;;;;;;;7.13;5.93;;;;;;;;;;5075112;28;20165;-70
2023/04/01 06:00:15;;;;;;;6.20;5.60;;;;;;;;;;5057471;28;20531;-69
2023/04/01 06:02:42;;;;;;;6.63;5.93;;;;;;;;;;5057070;28;20273;-70
2023/04/01 06:05:13;;;;;;;6.57;5.97;;;;;;;;;;5057069;28;20255;-68
2023/04/01 06:07:39;;;;;;;6.83;6.13;;;;;;;;;;5075272;28;20182;-70
2023/04/01 06:10:16;;;;;;;6.67;6.03;;;;;;;;;;5074846;28;20177;-68
2023/04/01 06:12:52;;;;;;;7.60;6.57;;;;;;;;;;5075087;28;20280;-69
2023/04/01 06:15:47;;;;;;;7.53;6.83;;;;;;;;;;5074910;28;20327;-69
2023/04/01 06:18:31;;;;;;;7.40;6.73;;;;;;;;;;5003518;28;20200;-69
2023/04/01 06:21:12;;;;;;;7.67;5.63;;;;;;;;;;5074574;28;20243;-68
2023/04/01 06:23:41;;;;;;;5.80;5.30;;;;;;;;;;5073948;28;20238;-68
2023/04/01 06:26:10;;;;;;;8.03;7.23;;;;;;;;;;5056591;28;20178;-69
2023/04/01 06:28:57;;;;;;;6.23;5.63;;;;;;;;;;5074613;28;20178;-69
2023/04/01 06:31:26;;;;;;;6.57;5.97;;;;;;;;;;5074572;28;20243;-69
2023/04/01 06:33:55;;;;;;;6.73;6.03;;;;;;;;;;5056389;28;20209;-70
2023/04/01 06:36:21;;;;;;;8.50;6.70;;;;;;;;;;5074335;28;20174;-69
2023/04/01 06:38:50;;;;;;;7.37;6.67;;;;;;;;;;5056360;28;20185;-69
2023/04/01 06:41:34;;;;;;;7.37;6.63;;;;;;;;;;5074327;28;20185;-69
2023/04/01 06:44:00;;;;;;;9.37;7.67;;;;;;;;;;5074134;28;20294;-70
2023/04/01 06:46:26;;;;;;;8.73;7.00;;;;;;;;;;5074458;28;20162;-70
2023/04/01 06:48:55;;;;;;;8.50;7.60;;;;;;;;;;5056268;28;20174;-70
2023/04/01 06:51:24;;;;;;;7.93;7.03;;;;;;;;;;5074052;28;20735;-69
2023/04/01 06:53:57;;;;;;;8.80;8.00;;;;;;;;;;5074312;28;20170;-70
2023/04/01 06:56:24;;;;;;;8.27;7.33;;;;;;;;;;5056155;28;20177;-69
2023/04/01 06:58:54;;;;;;;8.60;7.73;;;;;;;;;;5074089;28;20174;-70
2023/04/01 07:01:23;;;;;;;8.37;7.57;;;;;;;;;;5073874;28;20253;-69
2023/04/01 07:03:56;;;;;;;8.07;7.27;;;;;;;;;;5055805;28;20185;-70
2023/04/01 07:06:32;;;;;;;7.37;6.67;;;;;;;;;;5073888;28;20178;-69
2023/04/01 07:09:05;;;;;;;9.23;8.03;;;;;;;;;;5055920;28;20661;-70
2023/04/01 07:11:35;;;;;;;8.90;8.10;;;;;;;;;;5073731;28;20687;-69
2023/04/01 07:14:01;;;;;;;10.93;8.60;;;;;;;;;;5073661;28;20205;-70
2023/04/01 07:16:27;;;;;;;9.60;8.67;;;;;;;;;;5055815;28;20178;-69
2023/04/01 07:19:11;;;;;;;9.10;8.30;;;;;;;;;;5073838;28;20256;-70
2023/04/01 07:21:45;;;;;;;9.87;8.77;;;;;;;;;;5055814;28;20188;-69
2023/04/01 07:24:17;;;;;;;8.70;7.90;;;;;;;;;;5074034;28;20209;-70
2023/04/01 07:26:43;;;;;;;8.70;7.90;;;;;;;;;;5074105;28;20628;-69
2023/04/01 07:29:13;;;;;;;8.97;8.17;;;;;;;;;;5074821;28;20178;-69
2023/04/01 07:31:58;;;;;;;9.47;8.47;;;;;;;;;;5074010;28;20210;-68
2023/04/01 07:34:26;;;;;;;9.23;8.33;;;;;;;;;;5055392;28;20667;-69
2023/04/01 07:36:52;;;;;;;9.40;8.60;;;;;;;;;;5055185;28;20205;-69
2023/04/01 07:39:26;;;;;;;9.87;8.93;;;;;;;;;;5055443;28;20182;-69
2023/04/01 07:41:52;;;;;;;9.63;8.70;;;;;;;;;;5055296;28;20287;-70
2023/04/01 07:44:26;;;;;;;9.70;8.70;;;;;;;;;;5073183;28;20247;-70
2023/04/01 07:46:52;;;;;;;10.17;9.00;;;;;;;;;;5073379;28;20166;-70
2023/04/01 07:49:22;;;;;;;12.20;8.70;;;;;;;;;;5073417;28;20177;-70
2023/04/01 07:52:05;;;;;;;10.07;9.10;;;;;;;;;;5058532;28;20212;-69
2023/04/01 07:55:10;;;;;;;10.03;9.03;;;;;;;;;;5073094;28;20189;-69
2023/04/01 07:57:51;;;;;;;9.47;8.57;;;;;;;;;;4991629;28;20587;-70
2023/04/01 08:00:17;;;;;;;10.67;9.53;;;;;;;;;;4991805;28;20195;-69
2023/04/01 08:02:43;;;;;;;11.20;9.90;;;;;;;;;;5021988;28;20189;-70
2023/04/01 08:05:09;;;;;;;12.70;9.33;;;;;;;;;;5073236;28;20682;-70
2023/04/01 08:07:47;;;;;;;15.37;9.93;;;;;;;;;;5054961;28;20185;-70
2023/04/01 08:10:34;;;;;;;12.07;9.57;;;;;;;;;;5072989;28;20231;-70
2023/04/01 08:13:00;;;;;;;10.83;9.70;;;;;;;;;;5054913;28;20193;-70
2023/04/01 08:15:36;;;;;;;9.23;8.07;;;;;;;;;;5073041;28;20201;-70
2023/04/01 08:18:21;;;;;;;11.27;8.63;;;;;;;;;;5054920;28;20173;-70
2023/04/01 08:21:01;;;;;;;9.43;7.20;;;;;;;;;;5073242;28;20535;-70
2023/04/01 08:23:47;;;;;;;9.37;8.30;;;;;;;;;;5072856;28;20195;-70
2023/04/01 08:26:19;;;;;;;9.63;8.30;;;;;;;;;;5054968;28;20644;-70
2023/04/01 08:28:51;;;;;;;10.63;7.97;;;;;;;;;;5073167;28;20201;-70
2023/04/01 08:31:25;;;;;;;7.87;7.07;;;;;;;;;;5073142;28;20166;-69
2023/04/01 08:33:53;;;;;;;8.47;7.37;;;;;;;;;;5054896;28;20723;-70
2023/04/01 08:36:21;;;;;;;9.00;8.03;;;;;;;;;;5054810;28;20184;-70
2023/04/01 08:38:47;;;;;;;9.43;8.43;;;;;;;;;;5072851;28;20209;-70
2023/04/01 08:41:29;;;;;;;9.37;8.30;;;;;;;;;;5072879;28;20177;-70
2023/04/01 08:44:03;;;;;;;9.20;8.30;;;;;;;;;;5072929;28;20213;-70
2023/04/01 08:46:48;;;;;;;10.03;9.00;;;;;;;;;;5073724;28;20166;-70
2023/04/01 08:49:21;;;;;;;9.17;8.27;;;;;;;;;;5058690;28;20185;-70
2023/04/01 08:51:59;;;;;;;11.17;8.30;;;;;;;;;;5059337;28;20201;-70
2023/04/01 08:54:34;;;;;;;11.83;9.13;;;;;;;;;;5077966;28;20193;-70
2023/04/01 08:57:02;;;;;;;11.10;8.73;;;;;;;;;;5059918;28;20537;-69
2023/04/01 08:59:39;;;;;;;11.90;9.80;;;;;;;;;;5058694;28;20236;-70
2023/04/01 09:02:05;;;;;;;11.73;9.80;;;;;;;;;;5058836;28;20262;-70
2023/04/01 09:05:07;;;;;;;11.97;10.20;;;;;;;;;;5059161;28;20655;-70
2023/04/01 09:07:41;;;;;;;11.03;8.80;;;;;;;;;;4994867;28;20327;-68
2023/04/01 09:10:33;;;;;;;13.70;10.63;;;;;;;;;;5046256;28;20190;-67
2023/04/01 09:13:07;;;;;;;13.10;11.33;;;;;;;;;;5045451;28;20711;-68
2023/04/01 09:15:40;;;;;;;15.63;11.83;;;;;;;;;;5076091;28;20574;-68
2023/04/01 09:18:15;;;;;;;13.33;11.93;;;;;;;;;;5058232;28;20219;-68
2023/04/01 09:20:48;;;;;;;14.30;12.33;;;;;;;;;;5058033;28;20181;-67
2023/04/01 09:23:32;;;;;;;13.37;11.93;;;;;;;;;;5058034;28;20182;-68
2023/04/01 09:26:11;;;;;;;14.43;12.70;;;;;;;;;;5057572;28;20188;-67
2023/04/01 09:28:40;;;;;;;14.53;13.00;;;;;;;;;;5075852;28;20184;-67
2023/04/01 09:31:06;;;;;;;13.43;12.13;;;;;;;;;;5057668;28;20311;-67
2023/04/01 09:33:41;;;;;;;15.50;12.30;;;;;;;;;;5057572;28;20206;-68
2023/04/01 09:36:22;;;;;;;13.40;11.97;;;;;;;;;;5075485;28;20651;-67
2023/04/01 09:38:59;;;;;;;14.50;12.37;;;;;;;;;;5075445;28;20158;-67
2023/04/01 09:41:32;;;;;;;13.20;11.53;;;;;;;;;;5075329;28;20569;-66
2023/04/01 09:44:01;;;;;;;16.20;14.50;;;;;;;;;;5057523;28;20621;-66
2023/04/01 09:46:46;;;;;;;15.47;12.40;;;;;;;;;;5075160;28;20177;-67
2023/04/01 09:49:27;;;;;;;15.60;14.00;;;;;;;;;;5057116;28;20238;-66
2023/04/01 09:52:02;;;;;;;18.10;14.37;;;;;;;;;;5057341;28;20205;-66
2023/04/01 09:54:47;;;;;;;14.93;13.40;;;;;;;;;;5057484;28;20718;-66
2023/04/01 09:57:16;;;;;;;17.90;15.07;;;;;;;;;;5057226;28;20663;-66
2023/04/01 09:59:51;;;;;;;16.77;14.60;;;;;;;;;;5056209;28;20181;-66
2023/04/01 10:02:20;;;;;;;17.93;16.07;;;;;;;;;;5056960;28;20181;-66
2023/04/01 10:05:05;;;;;;;17.33;15.50;;;;;;;;;;5074739;28;20280;-66
2023/04/01 10:07:34;;;;;;;21.50;18.10;;;;;;;;;;5074875;28;20605;-67
2023/04/01 10:10:15;;;;;;;19.30;15.13;;;;;;;;;;5074923;28;20185;-67
2023/04/01 10:12:56;;;;;;;18.90;15.83;;;;;;;;;;5075136;28;20193;-68
2023/04/01 10:15:25;;;;;;;17.87;16.07;;;;;;;;;;5074547;28;20197;-67
2023/04/01 10:17:57;;;;;;;18.03;15.77;;;;;;;;;;5056632;28;20190;-67
2023/04/01 10:20:48;;;;;;;16.83;15.13;;;;;;;;;;5074608;28;20174;-67
2023/04/01 10:23:22;;;;;;;21.30;16.37;;;;;;;;;;5074915;28;20162;-67
2023/04/01 10:25:54;;;;;;;20.20;17.07;;;;;;;;;;5056480;28;20701;-67
2023/04/01 10:28:23;;;;;;;20.20;16.67;;;;;;;;;;5074492;28;20174;-67
2023/04/01 10:31:08;;;;;;;22.83;18.87;;;;;;;;;;5056540;28;20185;-67
2023/04/01 10:33:53;;;;;;;18.23;16.33;;;;;;;;;;5056378;28;20193;-67
2023/04/01 10:36:25;;;;;;;21.00;17.30;;;;;;;;;;5056331;28;20189;-68
2023/04/01 10:39:07;;;;;;;20.63;16.93;;;;;;;;;;5056357;28;20531;-66
2023/04/01 10:41:48;;;;;;;22.10;19.17;;;;;;;;;;5056244;28;20178;-67
2023/04/01 10:44:33;;;;;;;22.37;18.40;;;;;;;;;;5074164;28;20214;-67
2023/04/01 10:47:14;;;;;;;19.20;16.83;;;;;;;;;;5074407;28;20177;-67
2023/04/01 10:49:59;;;;;;;22.77;19.43;;;;;;;;;;5074324;28;20161;-66
2023/04/01 10:52:43;;;;;;;21.50;16.80;;;;;;;;;;5077969;22;20205;-67
2023/04/01 10:55:45;;;;;;;22.63;18.27;;;;;;;;;;5073921;28;20174;-69
2023/04/01 10:58:20;;;;;;;21.67;17.97;;;;;;;;;;4992571;28;20187;-69
2023/04/01 11:01:11;;;;;;;24.13;18.90;;;;;;;;;;5062730;28;20607;-67
2023/04/01 11:03:43;;;;;;;20.53;17.00;;;;;;;;;;5043197;28;20240;-69
2023/04/01 11:06:28;;;;;;;25.03;19.00;;;;;;;;;;5073786;28;20311;-68
2023/04/01 11:09:09;;;;;;;21.20;17.63;;;;;;;;;;5073702;28;20560;-69
2023/04/01 11:11:44;;;;;;;21.17;18.87;;;;;;;;;;5073927;28;20225;-69
2023/04/01 11:14:27;;;;;;;20.90;18.03;;;;;;;;;;5073660;28;20195;-68
2023/04/01 11:16:53;;;;;;;22.17;17.70;;;;;;;;;;5055747;28;20303;-69
2023/04/01 11:19:38;;;;;;;23.67;17.63;;;;;;;;;;5073882;28;20659;-68
2023/04/01 11:22:12;;;;;;;21.20;17.63;;;;;;;;;;5074035;28;20166;-69
2023/04/01 11:24:38;;;;;;;21.97;17.00;;;;;;;;;;5073586;28;20168;-69
2023/04/01 11:27:23;;;;;;;21.70;17.47;;;;;;;;;;5073813;28;20185;-68
2023/04/01 11:29:54;;;;;;;21.17;17.53;;;;;;;;;;5056260;28;20189;-68
2023/04/01 11:32:22;;;;;;;20.50;18.27;;;;;;;;;;5073705;28;20619;-69
2023/04/01 11:35:03;;;;;;;25.97;19.40;;;;;;;;;;5074249;28;20170;-67
2023/04/01 11:37:42;;;;;;;20.83;17.63;;;;;;;;;;5056339;28;20667;-68
2023/04/01 11:40:18;;;;;;;21.67;18.50;;;;;;;;;;5075556;28;20177;-68
2023/04/01 11:43:03;;;;;;;25.20;20.37;;;;;;;;;;5058681;28;20633;-69
2023/04/01 11:45:47;;;;;;;21.73;19.03;;;;;;;;;;5075935;28;20201;-68
2023/04/01 11:48:16;;;;;;;19.60;17.60;;;;;;;;;;5056213;28;20624;-67
2023/04/01 11:51:12;;;;;;;22.63;18.63;;;;;;;;;;5055600;28;20725;-67
2023/04/01 11:53:44;;;;;;;20.50;18.07;;;;;;;;;;5042845;28;20222;-68
2023/04/01 11:56:32;;;;;;;20.20;18.00;;;;;;;;;;5055794;28;20261;-68
2023/04/01 11:59:01;;;;;;;22.07;19.87;;;;;;;;;;5073547;28;20241;-69
2023/04/01 12:01:46;;;;;;;18.33;16.43;;;;;;;;;;5055377;28;20177;-68
2023/04/01 12:04:18;;;;;;;18.87;17.03;;;;;;;;;;5055346;28;20287;-69
2023/04/01 12:06:59;;;;;;;17.63;15.83;;;;;;;;;;5073699;28;20182;-69
2023/04/01 12:09:32;;;;;;;18.37;16.47;;;;;;;;;;5073375;28;20177;-68
2023/04/01 12:12:18;;;;;;;18.20;16.37;;;;;;;;;;5073508;28;20216;-68
2023/04/01 12:14:51;;;;;;;14.20;12.20;;;;;;;;;;5073418;28;20185;-67
2023/04/01 12:17:36;;;;;;;16.97;14.93;;;;;;;;;;5073506;28;20167;-70
2023/04/01 12:20:15;;;;;;;15.70;12.93;;;;;;;;;;5073320;28;20176;-68
2023/04/01 12:22:49;;;;;;;14.63;13.13;;;;;;;;;;5076125;28;20197;-68
2023/04/01 12:25:21;;;;;;;14.37;12.87;;;;;;;;;;5077504;28;20200;-67
2023/04/01 12:28:03;;;;;;;13.80;12.43;;;;;;;;;;5059152;28;20235;-68
2023/04/01 12:30:38;;;;;;;13.53;11.93;;;;;;;;;;5059171;28;20605;-67
2023/04/01 12:33:20;;;;;;;14.73;13.33;;;;;;;;;;5076778;28;20288;-68
2023/04/01 12:36:19;;;;;;;13.80;12.40;;;;;;;;;;5077228;28;20245;-68
2023/04/01 12:38:51;;;;;;;14.13;12.50;;;;;;;;;;5026423;28;20189;-68
2023/04/01 12:41:29;;;;;;;14.07;12.67;;;;;;;;;;5076806;28;20186;-67
2023/04/01 12:44:23;;;;;;;13.27;11.93;;;;;;;;;;5076889;28;20221;-69
2023/04/01 12:47:15;;;;;;;15.07;13.57;;;;;;;;;;5076756;28;20642;-68
2023/04/01 12:49:54;;;;;;;16.20;14.53;;;;;;;;;;5046195;28;20190;-69
2023/04/01 12:52:32;;;;;;;18.47;14.37;;;;;;;;;;5076402;28;20571;-68
2023/04/01 12:55:04;;;;;;;17.23;15.03;;;;;;;;;;5058635;28;20274;-69
2023/04/01 12:57:49;;;;;;;20.13;14.47;;;;;;;;;;5058557;28;20177;-69
2023/04/01 13:00:34;;;;;;;17.20;14.57;;;;;;;;;;5076609;28;20170;-68
2023/04/01 13:03:15;;;;;;;16.27;14.53;;;;;;;;;;5076441;28;20194;-68
2023/04/01 13:05:57;;;;;;;15.17;13.20;;;;;;;;;;5058545;28;20308;-68
2023/04/01 13:08:43;;;;;;;21.10;15.13;;;;;;;;;;5058583;28;20181;-68
2023/04/01 13:11:13;;;;;;;16.80;14.50;;;;;;;;;;5076418;28;20172;-67
2023/04/01 13:13:57;;;;;;;17.40;14.13;;;;;;;;;;5076908;28;20198;-68
2023/04/01 13:16:31;;;;;;;16.17;14.47;;;;;;;;;;5076292;28;20178;-69
2023/04/01 13:19:01;;;;;;;15.47;13.87;;;;;;;;;;5076063;28;20668;-69
2023/04/01 13:21:39;;;;;;;15.53;13.87;;;;;;;;;;5076628;28;20177;-66
2023/04/01 13:24:12;;;;;;;16.77;14.20;;;;;;;;;;5058215;28;20201;-68
2023/04/01 13:26:38;;;;;;;17.17;14.50;;;;;;;;;;5058476;28;20677;-68
2023/04/01 13:29:11;;;;;;;17.60;14.30;;;;;;;;;;5076316;28;20182;-68
2023/04/01 13:31:37;;;;;;;19.40;13.97;;;;;;;;;;5076033;28;20201;-68
2023/04/01 13:34:15;;;;;;;17.80;15.17;;;;;;;;;;5074603;28;20194;-68
2023/04/01 13:36:53;;;;;;;17.77;14.83;;;;;;;;;;5076326;28;20197;-67
2023/04/01 13:39:27;;;;;;;19.50;15.73;;;;;;;;;;5058012;28;20242;-69
2023/04/01 13:42:05;;;;;;;21.27;15.40;;;;;;;;;;5076087;28;20173;-67
2023/04/01 13:44:35;;;;;;;19.90;15.77;;;;;;;;;;5075663;28;20208;-70
2023/04/01 13:47:12;;;;;;;19.50;16.37;;;;;;;;;;5075785;28;20170;-70
2023/04/01 13:49:45;;;;;;;20.30;16.27;;;;;;;;;;5075763;28;20195;-68
2023/04/01 13:52:25;;;;;;;19.23;15.57;;;;;;;;;;5075281;28;20202;-70
2023/04/01 13:54:51;;;;;;;19.37;15.53;;;;;;;;;;5057303;28;20610;-68
2023/04/01 13:57:31;;;;;;;22.20;17.70;;;;;;;;;;5075522;28;20624;-68
2023/04/01 14:00:15;;;;;;;20.27;16.30;;;;;;;;;;5075617;28;20162;-67
2023/04/01 14:02:51;;;;;;;18.47;15.60;;;;;;;;;;5057473;28;20683;-68
2023/04/01 14:05:23;;;;;;;19.27;16.30;;;;;;;;;;5075469;28;20197;-69
2023/04/01 14:08:01;;;;;;;19.20;15.80;;;;;;;;;;5075602;28;20601;-69
2023/04/01 14:10:39;;;;;;;15.43;13.83;;;;;;;;;;5075502;28;20168;-69
2023/04/01 14:13:05;;;;;;;15.83;14.13;;;;;;;;;;5057139;28;20567;-67
2023/04/01 14:15:43;;;;;;;14.37;12.87;;;;;;;;;;5075168;28;20546;-66
2023/04/01 14:18:17;;;;;;;16.27;14.57;;;;;;;;;;5075165;28;20261;-69
2023/04/01 14:20:51;;;;;;;15.80;13.57;;;;;;;;;;5075097;28;20662;-70
2023/04/01 14:23:50;;;;;;;15.03;13.10;;;;;;;;;;5075027;28;20288;-70
2023/04/01 14:26:22;;;;;;;14.80;13.30;;;;;;;;;;5031123;28;20667;-69
2023/04/01 14:29:06;;;;;;;14.10;12.67;;;;;;;;;;5056854;28;20180;-69
2023/04/01 14:31:51;;;;;;;15.20;13.50;;;;;;;;;;5056580;28;20181;-71
2023/04/01 14:34:26;;;;;;;18.13;14.93;;;;;;;;;;5074598;28;20197;-69
2023/04/01 14:36:58;;;;;;;23.50;19.07;;;;;;;;;;5074606;28;20177;-68
2023/04/01 14:39:30;;;;;;;23.47;21.10;;;;;;;;;;5074722;28;20180;-70
2023/04/01 14:42:04;;;;;;;20.37;17.80;;;;;;;;;;5074804;28;20182;-68
2023/04/01 14:44:49;;;;;;;14.63;13.13;;;;;;;;;;5074327;28;20204;-68
2023/04/01 14:47:17;;;;;;;16.80;14.43;;;;;;;;;;5074734;28;20231;-68
2023/04/01 14:49:46;;;;;;;16.87;14.17;;;;;;;;;;5074619;28;20643;-68
2023/04/01 14:52:22;;;;;;;15.37;13.67;;;;;;;;;;5074678;28;20202;-68
2023/04/01 14:54:49;;;;;;;14.73;13.23;;;;;;;;;;5074622;28;20253;-67
2023/04/01 14:57:16;;;;;;;23.90;21.00;;;;;;;;;;5056225;28;20181;-70
2023/04/01 14:59:50;;;;;;;13.60;12.30;;;;;;;;;;5074215;28;20193;-68
2023/04/01 15:02:28;;;;;;;14.83;13.33;;;;;;;;;;5074075;28;20647;-67
2023/04/01 15:05:00;;;;;;;14.70;13.30;;;;;;;;;;5074532;28;20172;-70